createdAt,value
2018-11-28T00:00:52.665Z,3.30
2018-11-28T00:03:20.861Z,3.30
2018-11-28T00:05:49.009Z,3.30
2018-11-28T00:08:17.172Z,3.20
2018-11-28T00:10:45.381Z,3.20
2018-11-28T00:13:13.528Z,3.20
2018-11-28T00:15:41.708Z,3.20
2018-11-28T00:18:09.892Z,3.20
2018-11-28T00:20:38.149Z,3.20
2018-11-28T00:23:06.325Z,3.30
2018-11-28T00:25:34.525Z,3.20
2018-11-28T00:28:02.669Z,3.20
2018-11-28T00:30:30.840Z,3.20
2018-11-28T00:32:59.046Z,3.20
2018-11-28T00:35:27.194Z,3.20
2018-11-28T00:37:55.364Z,3.10
2018-11-28T00:40:24.074Z,3.10
2018-11-28T00:42:52.251Z,3.00
2018-11-28T00:45:21.832Z,3.00
2018-11-28T00:47:50.021Z,3.10
2018-11-28T00:50:24.484Z,3.20
2018-11-28T00:52:52.866Z,3.10
2018-11-28T00:55:20.969Z,3.10
2018-11-28T00:57:49.148Z,3.00
2018-11-28T01:00:22.063Z,3.00
2018-11-28T01:02:50.577Z,2.90
2018-11-28T01:05:18.729Z,2.90
2018-11-28T01:07:48.783Z,2.90
2018-11-28T01:10:18.208Z,2.80
2018-11-28T01:12:46.581Z,2.90
2018-11-28T01:15:16.360Z,2.80
2018-11-28T01:17:44.588Z,2.80
2018-11-28T01:20:14.689Z,2.80
2018-11-28T01:22:42.894Z,2.80
2018-11-28T01:25:12.013Z,2.80
2018-11-28T01:27:40.320Z,2.80
2018-11-28T01:30:14.021Z,2.70
2018-11-28T01:32:42.281Z,2.70
2018-11-28T01:35:11.365Z,2.80
2018-11-28T01:37:39.885Z,2.80
2018-11-28T01:40:16.214Z,2.70
2018-11-28T01:42:44.445Z,2.70
2018-11-28T01:45:17.686Z,2.70
2018-11-28T01:47:45.985Z,2.60
2018-11-28T01:50:15.052Z,2.70
2018-11-28T01:52:43.286Z,2.70
2018-11-28T01:55:12.464Z,2.70
2018-11-28T01:57:40.632Z,2.70
2018-11-28T02:00:20.046Z,2.70
2018-11-28T02:02:49.745Z,2.70
2018-11-28T02:05:18.053Z,2.70
2018-11-28T02:07:46.261Z,2.70
2018-11-28T02:10:15.022Z,2.60
2018-11-28T02:12:43.209Z,2.60
2018-11-28T02:15:19.317Z,2.60
2018-11-28T02:17:47.496Z,2.60
2018-11-28T02:20:16.478Z,2.70
2018-11-28T02:22:44.977Z,2.60
2018-11-28T02:25:14.973Z,2.60
2018-11-28T02:27:43.268Z,2.60
2018-11-28T02:30:13.505Z,2.60
2018-11-28T02:32:41.685Z,2.60
2018-11-28T02:35:10.945Z,2.60
2018-11-28T02:37:39.277Z,2.60
2018-11-28T02:40:08.990Z,2.60
2018-11-28T02:42:37.148Z,2.60
2018-11-28T02:45:13.208Z,2.50
2018-11-28T02:47:41.375Z,2.50
2018-11-28T02:50:09.611Z,2.40
2018-11-28T02:52:37.745Z,2.40
2018-11-28T02:55:07.901Z,2.30
2018-11-28T02:57:36.118Z,2.30
2018-11-28T03:00:08.992Z,2.30
2018-11-28T03:02:37.173Z,2.30
2018-11-28T03:05:06.841Z,2.30
2018-11-28T03:07:35.081Z,2.30
2018-11-28T03:10:03.249Z,2.30
2018-11-28T03:12:31.406Z,2.30
2018-11-28T03:14:59.600Z,2.30
2018-11-28T03:17:27.752Z,2.30
2018-11-28T03:19:55.961Z,2.30
2018-11-28T03:22:24.125Z,2.30
2018-11-28T03:24:52.368Z,2.20
2018-11-28T03:27:20.549Z,2.30
2018-11-28T03:29:48.752Z,2.30
2018-11-28T03:32:16.889Z,2.30
2018-11-28T03:34:45.611Z,2.20
2018-11-28T03:37:13.289Z,2.20
2018-11-28T03:39:41.516Z,2.30
2018-11-28T03:42:09.690Z,2.30
2018-11-28T03:44:37.892Z,2.30
2018-11-28T03:47:06.057Z,2.30
2018-11-28T03:49:34.210Z,2.20
2018-11-28T03:52:02.448Z,2.20
2018-11-28T03:54:30.561Z,2.20
2018-11-28T03:56:58.730Z,2.30
2018-11-28T03:59:26.968Z,2.20
2018-11-28T04:01:55.082Z,2.20
2018-11-28T04:04:23.257Z,2.20
2018-11-28T04:06:51.437Z,2.20
2018-11-28T04:09:19.593Z,2.20
2018-11-28T04:11:47.773Z,2.20
2018-11-28T04:14:16.536Z,2.20
2018-11-28T04:16:44.733Z,2.20
2018-11-28T04:19:12.906Z,2.20
2018-11-28T04:21:41.101Z,2.20
2018-11-28T04:24:09.249Z,2.20
2018-11-28T04:26:37.429Z,2.10
2018-11-28T04:29:06.198Z,2.10
2018-11-28T04:31:34.384Z,2.10
2018-11-28T04:34:02.493Z,2.10
2018-11-28T04:36:30.689Z,2.10
2018-11-28T04:38:58.904Z,2.00
2018-11-28T04:41:27.077Z,2.00
2018-11-28T04:43:55.292Z,2.00
2018-11-28T04:46:23.492Z,2.00
2018-11-28T04:48:51.588Z,2.00
2018-11-28T04:51:19.802Z,1.90
2018-11-28T04:53:47.988Z,1.90
2018-11-28T04:56:16.185Z,1.90
2018-11-28T04:58:44.312Z,1.90
2018-11-28T05:01:12.465Z,1.80
2018-11-28T05:03:40.705Z,1.90
2018-11-28T05:06:08.833Z,1.80
2018-11-28T05:08:36.990Z,1.80
2018-11-28T05:11:05.321Z,1.80
2018-11-28T05:13:33.561Z,1.80
2018-11-28T05:16:01.806Z,1.80
2018-11-28T05:18:29.989Z,1.80
2018-11-28T05:20:58.184Z,1.80
2018-11-28T05:23:26.333Z,1.80
2018-11-28T05:25:54.749Z,1.80
2018-11-28T05:28:22.901Z,1.70
2018-11-28T05:30:51.057Z,1.80
2018-11-28T05:33:19.240Z,1.80
2018-11-28T05:35:47.429Z,1.70
2018-11-28T05:38:16.149Z,1.70
2018-11-28T05:40:44.941Z,1.70
2018-11-28T05:43:13.186Z,1.70
2018-11-28T05:45:41.324Z,1.60
2018-11-28T05:48:09.501Z,1.70
2018-11-28T05:50:37.716Z,1.70
2018-11-28T05:53:05.844Z,1.70
2018-11-28T05:55:34.021Z,1.70
2018-11-28T05:58:02.787Z,1.70
2018-11-28T06:00:37.121Z,1.70
2018-11-28T06:03:06.921Z,1.70
2018-11-28T06:05:35.145Z,1.70
2018-11-28T06:08:03.284Z,1.70
2018-11-28T06:10:31.476Z,1.60
2018-11-28T06:12:59.629Z,1.70
2018-11-28T06:15:27.820Z,1.70
2018-11-28T06:17:55.997Z,1.70
2018-11-28T06:20:24.152Z,1.70
2018-11-28T06:22:52.341Z,1.70
2018-11-28T06:25:20.483Z,1.70
2018-11-28T06:27:48.675Z,1.70
2018-11-28T06:30:18.647Z,1.70
2018-11-28T06:32:51.349Z,1.70
2018-11-28T06:35:15.061Z,1.70
2018-11-28T06:37:43.473Z,1.60
2018-11-28T06:40:13.727Z,1.60
2018-11-28T06:42:42.178Z,1.70
2018-11-28T06:45:11.880Z,1.70
2018-11-28T06:47:40.134Z,1.60
2018-11-28T06:50:10.789Z,1.60
2018-11-28T06:52:39.007Z,1.60
2018-11-28T06:55:10.229Z,1.60
2018-11-28T06:57:38.445Z,1.50
2018-11-28T07:00:26.274Z,1.60
2018-11-28T07:02:54.440Z,1.50
2018-11-28T07:05:23.177Z,1.60
2018-11-28T07:07:51.995Z,1.50
2018-11-28T07:10:21.160Z,1.60
2018-11-28T07:12:49.414Z,1.60
2018-11-28T07:15:18.868Z,1.60
2018-11-28T07:17:47.057Z,1.60
2018-11-28T07:20:15.905Z,1.60
2018-11-28T07:22:44.141Z,1.60
2018-11-28T07:25:14.197Z,1.60
2018-11-28T07:27:45.105Z,1.60
2018-11-28T07:30:15.598Z,1.70
2018-11-28T07:32:43.788Z,1.70
2018-11-28T07:35:12.520Z,1.80
2018-11-28T07:37:40.770Z,1.80
2018-11-28T07:40:23.958Z,1.80
2018-11-28T07:43:13.208Z,1.80
2018-11-28T07:45:44.633Z,1.80
2018-11-28T07:48:12.877Z,1.90
2018-11-28T07:50:41.044Z,1.90
2018-11-28T07:53:09.201Z,1.90
2018-11-28T07:55:37.400Z,1.90
2018-11-28T07:58:06.016Z,1.90
2018-11-28T08:00:34.806Z,2.00
2018-11-28T08:03:03.041Z,2.00
2018-11-28T08:05:31.193Z,2.00
2018-11-28T08:07:59.381Z,2.10
2018-11-28T08:10:31.232Z,2.10
2018-11-28T08:12:59.401Z,2.20
2018-11-28T08:15:27.579Z,2.30
2018-11-28T08:17:55.773Z,2.40
2018-11-28T08:20:23.920Z,2.40
2018-11-28T08:22:52.097Z,2.50
2018-11-28T08:25:20.290Z,2.60
2018-11-28T08:27:49.423Z,2.70
2018-11-28T08:30:19.866Z,2.70
2018-11-28T08:32:47.877Z,2.80
2018-11-28T08:35:16.045Z,2.90
2018-11-28T08:37:44.236Z,3.00
2018-11-28T08:40:13.608Z,3.00
2018-11-28T08:42:41.820Z,3.00
2018-11-28T08:45:14.541Z,3.00
2018-11-28T08:47:43.006Z,3.10
2018-11-28T08:50:27.832Z,3.10
2018-11-28T08:52:55.981Z,3.20
2018-11-28T08:55:24.169Z,3.30
2018-11-28T08:57:52.416Z,3.50
2018-11-28T09:00:21.598Z,3.50
2018-11-28T09:02:50.885Z,3.40
2018-11-28T09:05:19.122Z,3.60
2018-11-28T09:07:47.274Z,3.80
2018-11-28T09:10:16.329Z,4.00
2018-11-28T09:12:45.150Z,4.10
2018-11-28T09:15:16.565Z,4.20
2018-11-28T09:17:44.800Z,4.30
2018-11-28T09:20:13.749Z,4.30
2018-11-28T09:22:41.949Z,4.20
2018-11-28T09:25:11.530Z,4.20
2018-11-28T09:27:39.725Z,4.10
2018-11-28T09:30:22.875Z,4.10
2018-11-28T09:32:51.353Z,4.00
2018-11-28T09:35:19.869Z,4.00
2018-11-28T09:37:48.145Z,4.00
2018-11-28T09:40:26.057Z,4.00
2018-11-28T09:42:55.469Z,4.00
2018-11-28T09:45:23.665Z,4.00
2018-11-28T09:47:51.843Z,4.10
2018-11-28T09:50:21.017Z,4.10
2018-11-28T09:52:49.332Z,4.10
2018-11-28T09:55:19.398Z,4.10
2018-11-28T09:57:47.805Z,4.10
2018-11-28T10:00:24.652Z,4.00
2018-11-28T10:02:54.781Z,4.10
2018-11-28T10:05:24.985Z,4.00
2018-11-28T10:07:53.205Z,4.00
2018-11-28T10:10:21.392Z,3.90
2018-11-28T10:12:49.545Z,4.00
2018-11-28T10:15:19.560Z,4.00
2018-11-28T10:17:47.873Z,3.90
2018-11-28T10:20:16.589Z,3.90
2018-11-28T10:22:45.064Z,3.90
2018-11-28T10:25:14.389Z,3.90
2018-11-28T10:27:43.362Z,3.80
2018-11-28T10:30:14.317Z,3.80
2018-11-28T10:32:42.533Z,3.80
2018-11-28T10:35:10.686Z,3.80
2018-11-28T10:37:38.893Z,3.70
2018-11-28T10:40:23.476Z,3.70
2018-11-28T10:42:52.817Z,3.60
2018-11-28T10:45:22.000Z,3.70
2018-11-28T10:47:50.185Z,3.70
2018-11-28T10:50:18.317Z,3.60
2018-11-28T10:52:46.541Z,3.50
2018-11-28T10:55:18.687Z,3.40
2018-11-28T10:57:46.900Z,3.30
2018-11-28T11:00:26.590Z,3.40
2018-11-28T11:03:00.261Z,3.40
2018-11-28T11:05:34.041Z,3.40
2018-11-28T11:08:07.795Z,3.40
2018-11-28T11:10:41.485Z,3.50
2018-11-28T11:13:15.045Z,3.50
2018-11-28T11:15:43.228Z,3.40
2018-11-28T11:18:12.057Z,3.40
2018-11-28T11:20:40.270Z,3.50
2018-11-28T11:23:08.888Z,3.60
2018-11-28T11:25:37.046Z,3.60
2018-11-28T11:28:05.577Z,3.80
2018-11-28T11:30:33.834Z,3.80
2018-11-28T11:33:01.954Z,4.00
2018-11-28T11:35:30.133Z,4.20
2018-11-28T11:37:58.324Z,4.30
2018-11-28T11:40:26.500Z,4.30
2018-11-28T11:42:54.649Z,4.40
2018-11-28T11:45:22.858Z,4.50
2018-11-28T11:47:51.001Z,4.80
2018-11-28T11:50:19.561Z,5.20
2018-11-28T11:52:47.802Z,5.00
2018-11-28T11:55:19.573Z,4.90
2018-11-28T11:57:48.381Z,4.80
2018-11-28T12:00:26.792Z,4.50
2018-11-28T12:03:01.887Z,4.30
2018-11-28T12:05:30.027Z,4.10
2018-11-28T12:07:58.194Z,3.90
2018-11-28T12:10:26.398Z,3.90
2018-11-28T12:12:54.547Z,3.80
2018-11-28T12:15:22.721Z,3.80
2018-11-28T12:17:50.909Z,3.80
2018-11-28T12:20:32.113Z,3.70
2018-11-28T12:23:00.261Z,3.60
2018-11-28T12:25:28.428Z,3.50
2018-11-28T12:27:56.588Z,3.60
2018-11-28T12:30:24.789Z,3.40
2018-11-28T12:32:53.037Z,3.30
2018-11-28T12:35:21.209Z,3.30
2018-11-28T12:37:52.744Z,3.40
2018-11-28T12:40:20.937Z,3.40
2018-11-28T12:42:50.630Z,3.30
2018-11-28T12:45:19.704Z,3.40
2018-11-28T12:47:48.380Z,3.40
2018-11-28T12:50:22.733Z,3.40
2018-11-28T12:52:51.589Z,3.40
2018-11-28T12:55:20.306Z,3.20
2018-11-28T13:05:00.025Z,3.20
2018-11-28T13:07:28.080Z,3.20
2018-11-28T13:09:56.252Z,3.10
2018-11-28T13:12:24.503Z,3.00
2018-11-28T13:14:52.701Z,3.00
2018-11-28T13:17:20.873Z,3.00
2018-11-28T13:19:49.127Z,3.00
2018-11-28T13:22:17.321Z,3.00
2018-11-28T13:24:45.524Z,3.00
2018-11-28T13:27:13.688Z,2.90
2018-11-28T13:29:41.844Z,2.80
2018-11-28T13:32:10.078Z,2.70
2018-11-28T13:34:38.337Z,2.70
2018-11-28T13:37:06.860Z,2.70
2018-11-28T13:39:35.068Z,2.70
2018-11-28T13:42:03.262Z,2.70
2018-11-28T13:44:31.392Z,2.70
2018-11-28T13:46:59.570Z,2.60
2018-11-28T13:49:27.760Z,2.60
2018-11-28T13:51:55.914Z,2.60
2018-11-28T13:54:24.084Z,2.50
2018-11-28T13:57:03.720Z,2.50
2018-11-28T13:59:20.590Z,2.50
2018-11-28T14:01:48.709Z,2.40
2018-11-28T14:04:16.892Z,2.30
2018-11-28T14:06:45.119Z,2.30
2018-11-28T14:09:13.328Z,2.30
2018-11-28T14:11:41.549Z,2.30
2018-11-28T14:14:09.681Z,2.20
2018-11-28T14:16:37.853Z,2.20
2018-11-28T14:19:06.077Z,2.20
2018-11-28T14:21:34.205Z,2.10
2018-11-28T14:24:02.373Z,2.10
2018-11-28T14:26:30.577Z,2.00
2018-11-28T14:28:58.717Z,2.00
2018-11-28T14:31:26.893Z,2.00
2018-11-28T14:33:55.081Z,1.90
2018-11-28T14:36:23.237Z,1.80
2018-11-28T14:38:51.413Z,1.80
2018-11-28T14:41:20.082Z,1.80
2018-11-28T14:46:28.352Z,1.80
2018-11-28T14:48:56.508Z,2.00
2018-11-28T14:51:24.676Z,2.00
2018-11-28T14:53:52.879Z,2.10
2018-11-28T14:56:21.025Z,2.10
2018-11-28T14:58:49.202Z,2.00
2018-11-28T15:04:09.262Z,2.10
2018-11-28T15:06:46.578Z,2.00
2018-11-28T15:09:20.308Z,1.80
2018-11-28T15:11:48.378Z,1.80
2018-11-28T15:14:16.621Z,1.70
2018-11-28T15:16:44.981Z,1.70
2018-11-28T15:19:13.177Z,1.80
2018-11-28T15:21:41.365Z,1.70
2018-11-28T15:24:09.602Z,1.70
2018-11-28T15:26:37.809Z,1.70
2018-11-28T15:29:06.685Z,1.70
2018-11-28T15:31:35.011Z,1.70
2018-11-28T15:34:03.153Z,1.50
2018-11-28T15:36:31.334Z,1.40
2018-11-28T15:38:59.554Z,1.30
2018-11-28T15:41:27.851Z,1.30
2018-11-28T15:43:56.048Z,1.20
2018-11-28T15:47:53.625Z,1.30
2018-11-28T15:50:21.793Z,1.20
2018-11-28T15:52:49.961Z,1.20
2018-11-28T15:55:18.184Z,1.10
2018-11-28T15:57:46.308Z,1.10
2018-11-28T16:00:19.520Z,1.10
2018-11-28T16:02:47.677Z,1.10
2018-11-28T16:05:15.861Z,1.00
2018-11-28T16:07:44.057Z,1.00
2018-11-28T16:10:18.698Z,1.00
2018-11-28T16:12:47.564Z,1.00
2018-11-28T16:15:25.141Z,1.00
2018-11-28T16:17:53.373Z,1.10
2018-11-28T16:20:21.629Z,1.00
2018-11-28T16:22:50.049Z,1.00
2018-11-28T16:25:18.300Z,1.00
2018-11-28T16:27:46.616Z,1.00
2018-11-28T16:30:15.772Z,1.00
2018-11-28T16:32:45.842Z,1.00
2018-11-28T16:35:15.307Z,1.10
2018-11-28T16:37:43.557Z,1.00
2018-11-28T16:40:13.113Z,0.90
2018-11-28T16:42:41.285Z,1.00
2018-11-28T16:45:12.832Z,0.90
2018-11-28T16:47:41.162Z,0.80
2018-11-28T16:50:10.248Z,0.70
2018-11-28T16:52:38.533Z,0.70
2018-11-28T16:55:08.156Z,0.80
2018-11-28T16:57:36.373Z,0.90
2018-11-28T17:00:15.342Z,0.90
2018-11-28T17:02:43.521Z,0.80
2018-11-28T17:05:14.996Z,0.90
2018-11-28T17:07:43.420Z,0.90
2018-11-28T17:10:13.718Z,0.90
2018-11-28T17:12:42.093Z,0.90
2018-11-28T17:15:12.752Z,0.90
2018-11-28T17:17:41.176Z,1.00
2018-11-28T17:20:12.761Z,1.00
2018-11-28T17:22:41.725Z,1.00
2018-11-28T17:25:13.547Z,0.90
2018-11-28T17:27:41.792Z,0.90
2018-11-28T17:30:12.564Z,0.90
2018-11-28T17:32:40.733Z,0.90
2018-11-28T17:35:09.969Z,0.90
2018-11-28T17:37:38.232Z,0.90
2018-11-28T17:40:09.225Z,0.80
2018-11-28T17:42:37.445Z,0.90
2018-11-28T17:45:08.617Z,0.80
2018-11-28T17:47:36.889Z,0.80
2018-11-28T17:50:09.381Z,0.80
2018-11-28T17:52:37.561Z,0.70
2018-11-28T17:55:08.477Z,0.60
2018-11-28T17:57:36.698Z,0.60
2018-11-28T18:00:07.892Z,0.70
2018-11-28T18:02:36.114Z,0.80
2018-11-28T18:05:04.733Z,0.80
2018-11-28T18:07:33.142Z,0.80
2018-11-28T18:10:01.357Z,0.80
2018-11-28T18:12:29.522Z,0.90
2018-11-28T18:14:57.710Z,0.90
2018-11-28T18:17:25.861Z,0.80
2018-11-28T18:19:54.033Z,0.90
2018-11-28T18:22:22.249Z,0.80
2018-11-28T18:24:50.545Z,0.90
2018-11-28T18:27:18.756Z,1.00
2018-11-28T18:29:47.686Z,0.90
2018-11-28T18:32:15.216Z,1.00
2018-11-28T18:34:43.378Z,0.90
2018-11-28T18:37:11.609Z,0.90
2018-11-28T18:39:39.843Z,0.90
2018-11-28T18:42:08.114Z,0.90
2018-11-28T18:44:36.316Z,0.90
2018-11-28T18:47:04.850Z,0.90
2018-11-28T18:49:33.139Z,0.90
2018-11-28T18:52:01.371Z,0.90
2018-11-28T18:54:29.629Z,0.90
2018-11-28T18:56:57.856Z,0.90
2018-11-28T18:59:26.073Z,0.90
2018-11-28T19:01:54.334Z,0.90
2018-11-28T19:04:22.477Z,0.80
2018-11-28T19:06:50.692Z,0.90
2018-11-28T19:09:24.436Z,0.90
2018-11-28T19:11:52.770Z,0.90
2018-11-28T19:14:21.048Z,0.90
2018-11-28T19:16:49.337Z,0.90
2018-11-28T19:19:17.625Z,0.90
2018-11-28T19:21:45.890Z,0.90
2018-11-28T19:24:14.143Z,0.80
2018-11-28T19:26:42.330Z,0.70
2018-11-28T19:29:10.608Z,0.60
2018-11-28T19:31:38.729Z,0.60
2018-11-28T19:34:06.929Z,0.50
2018-11-28T19:36:35.138Z,0.50
2018-11-28T19:39:03.626Z,0.50
2018-11-28T19:41:31.881Z,0.50
2018-11-28T19:44:00.116Z,0.60
2018-11-28T19:46:28.293Z,0.60
2018-11-28T19:48:57.528Z,0.50
2018-11-28T19:51:25.773Z,0.60
2018-11-28T19:53:53.929Z,0.60
2018-11-28T19:56:22.138Z,0.60
2018-11-28T19:58:50.281Z,0.60
2018-11-28T20:01:18.470Z,0.50
2018-11-28T20:03:46.673Z,0.60
2018-11-28T20:06:14.917Z,0.60
2018-11-28T20:08:43.105Z,0.60
2018-11-28T20:11:11.635Z,0.50
2018-11-28T20:13:39.837Z,0.50
2018-11-28T20:16:08.047Z,0.50
2018-11-28T20:18:36.301Z,0.50
2018-11-28T20:21:04.538Z,0.50
2018-11-28T20:23:32.795Z,0.50
2018-11-28T20:26:01.081Z,0.60
2018-11-28T20:28:29.281Z,0.60
2018-11-28T20:30:57.450Z,0.50
2018-11-28T20:33:25.687Z,0.50
2018-11-28T20:35:53.902Z,0.60
2018-11-28T20:38:30.041Z,0.60
2018-11-28T20:40:58.242Z,0.60
2018-11-28T20:43:26.425Z,0.60
2018-11-28T20:45:54.652Z,0.70
2018-11-28T20:48:22.854Z,0.70
2018-11-28T20:50:51.860Z,0.70
2018-11-28T20:53:20.957Z,0.80
2018-11-28T20:55:49.131Z,0.80
2018-11-28T20:58:17.328Z,0.80
2018-11-28T21:00:45.497Z,0.80
2018-11-28T21:03:13.640Z,0.80
2018-11-28T21:05:41.816Z,0.80
2018-11-28T21:08:10.276Z,0.80
2018-11-28T21:10:39.281Z,0.80
2018-11-28T21:13:11.662Z,0.80
2018-11-28T21:15:40.504Z,0.70
2018-11-28T21:18:09.063Z,0.80
2018-11-28T21:20:38.217Z,0.80
2018-11-28T21:23:10.106Z,0.80
2018-11-28T21:25:38.938Z,0.80
2018-11-28T21:28:07.205Z,0.70
2018-11-28T21:30:35.433Z,0.80
2018-11-28T21:33:03.663Z,0.80
2018-11-28T21:35:33.056Z,0.80
2018-11-28T21:38:01.301Z,0.80
2018-11-28T21:40:29.480Z,0.90
2018-11-28T21:42:57.745Z,0.90
2018-11-28T21:45:26.180Z,0.90
2018-11-28T21:47:54.454Z,0.70
2018-11-28T21:50:22.666Z,0.80
2018-11-28T21:52:50.833Z,0.70
2018-11-28T21:55:21.145Z,0.70
2018-11-28T21:57:49.324Z,0.60
2018-11-28T22:00:19.444Z,0.60
2018-11-28T22:02:47.675Z,0.60
2018-11-28T22:05:16.382Z,0.60
2018-11-28T22:07:44.597Z,0.70
2018-11-28T22:10:20.730Z,0.70
2018-11-28T22:12:48.936Z,0.70
2018-11-28T22:15:24.413Z,0.70
2018-11-28T22:17:54.631Z,0.70
2018-11-28T22:20:23.444Z,0.70
2018-11-28T22:22:51.670Z,0.60
2018-11-28T22:25:23.586Z,0.70
2018-11-28T22:27:51.850Z,0.70
2018-11-28T22:30:22.894Z,0.70
2018-11-28T22:32:51.110Z,0.80
2018-11-28T22:35:19.271Z,0.60
2018-11-28T22:37:47.461Z,0.60
2018-11-28T22:40:19.571Z,0.60
2018-11-28T22:42:47.800Z,0.70
2018-11-28T22:45:17.956Z,0.60
2018-11-28T22:47:46.191Z,0.60
2018-11-28T22:50:14.496Z,0.60
2018-11-28T22:52:42.725Z,0.60
2018-11-28T22:55:12.904Z,0.60
2018-11-28T22:57:41.156Z,0.60
2018-11-28T23:00:13.937Z,0.60
2018-11-28T23:02:48.397Z,0.60
2018-11-28T23:05:16.601Z,0.70
2018-11-28T23:07:44.841Z,0.70
2018-11-28T23:10:13.070Z,0.70
2018-11-28T23:12:41.218Z,0.70
2018-11-28T23:15:09.396Z,0.70
2018-11-28T23:17:37.594Z,0.70
2018-11-28T23:20:07.033Z,0.80
2018-11-28T23:22:35.257Z,0.60
2018-11-28T23:25:03.477Z,0.60
2018-11-28T23:27:31.700Z,0.60
2018-11-28T23:29:59.877Z,0.70
2018-11-28T23:32:28.061Z,0.70
2018-11-28T23:34:56.247Z,0.70
2018-11-28T23:37:24.385Z,0.60
2018-11-28T23:39:52.598Z,0.60
2018-11-28T23:42:20.733Z,0.60
2018-11-28T23:44:48.909Z,0.50
2018-11-28T23:47:17.105Z,0.60
2018-11-28T23:49:45.257Z,0.60
2018-11-28T23:52:13.429Z,0.40
2018-11-28T23:54:41.624Z,0.50
2018-11-28T23:57:09.782Z,0.50
2018-11-28T23:59:37.956Z,0.60
